logo
Rechercher aéroport 
image banner adimage banner adimage banner ad
image banner ad

3CL7 - Oca Heliport

Situé à Los Angeles, United States

ICAO - 3CL7, IATA -

Données fournies par Airmate  

Information générale

Coordonnées: N34°2'11" W118°26'38"
Élévation : 200 feet MSL.
Variation magnétique : 14° East
Voir autres Aéroports à California

Données opérationnelles

Special qualification required
Heure actuelle UTC:
Heure actuelle locale:
Météo à : KSMO - Santa Monica Muni ( 2 km )
METAR: KSMO 281251Z AUTO 00000KT 10SM CLR 19/16 A2989 RMK AO2 SLP119 T01940161
TAF: KSMO 281148Z 2812/2912 VRB03KT P6SM SKC FM281800 23009KT P6SM SKC FM290300 VRB03KT P6SM SKC FM290600 VRB03KT 6SM BR SCT004
Voir NOTAMs / SUP AIP / TFR affectant cet aéroport [VIEW]
Fréquences de communication: [VIEW]

Pistes:

Coordonnées de l'aéroport

Adresse: Los Angeles United States

Vue satellite de 3CL7